createdAt,value
2017-10-10T00:02:06.081Z,11.67
2017-10-10T00:04:33.686Z,11.65
2017-10-10T00:07:01.353Z,11.59
2017-10-10T00:09:29.016Z,11.52
2017-10-10T00:11:56.620Z,11.62
2017-10-10T00:14:24.281Z,11.70
2017-10-10T00:16:51.991Z,11.81
2017-10-10T00:19:19.599Z,11.85
2017-10-10T00:21:47.263Z,11.89
2017-10-10T00:24:14.992Z,11.89
2017-10-10T00:26:42.632Z,11.95
2017-10-10T00:29:10.237Z,12.02
2017-10-10T00:31:37.900Z,12.03
2017-10-10T00:34:05.572Z,11.99
2017-10-10T00:36:33.184Z,11.93
2017-10-10T00:39:00.899Z,11.88
2017-10-10T00:41:28.511Z,11.79
2017-10-10T00:43:56.180Z,11.77
2017-10-10T00:46:23.892Z,11.81
2017-10-10T00:48:51.616Z,11.76
2017-10-10T00:51:19.345Z,11.70
2017-10-10T00:53:47.003Z,11.64
2017-10-10T00:56:14.676Z,11.53
2017-10-10T00:58:42.285Z,11.42
2017-10-10T01:01:09.959Z,11.38
2017-10-10T01:03:37.575Z,11.37
2017-10-10T01:06:05.241Z,11.32
2017-10-10T01:08:32.956Z,11.25
2017-10-10T01:11:00.567Z,11.23
2017-10-10T01:13:28.199Z,11.18
2017-10-10T01:15:55.855Z,11.14
2017-10-10T01:18:23.476Z,11.12
2017-10-10T01:20:51.133Z,11.17
2017-10-10T01:23:18.821Z,11.25
2017-10-10T01:25:46.452Z,11.30
2017-10-10T01:28:14.076Z,11.31
2017-10-10T01:30:41.746Z,11.27
2017-10-10T01:33:09.421Z,11.23
2017-10-10T01:35:37.034Z,11.15
2017-10-10T01:38:04.688Z,11.10
2017-10-10T01:40:32.324Z,10.98
2017-10-10T01:42:59.950Z,10.90
2017-10-10T01:45:27.686Z,10.83
2017-10-10T01:47:55.305Z,10.83
2017-10-10T01:50:23.000Z,10.93
2017-10-10T01:52:50.707Z,11.10
2017-10-10T01:55:18.312Z,11.15
2017-10-10T01:57:45.993Z,11.25
2017-10-10T02:00:13.744Z,11.27
2017-10-10T02:02:41.355Z,11.34
2017-10-10T02:05:08.959Z,11.39
2017-10-10T02:07:36.603Z,11.34
2017-10-10T02:10:04.312Z,11.38
2017-10-10T02:12:31.967Z,11.40
2017-10-10T02:14:59.674Z,11.40
2017-10-10T02:17:27.283Z,11.39
2017-10-10T02:19:54.997Z,11.35
2017-10-10T02:22:22.664Z,11.33
2017-10-10T02:24:50.270Z,11.31
2017-10-10T02:27:17.875Z,11.31
2017-10-10T02:29:45.584Z,11.29
2017-10-10T02:32:13.244Z,11.32
2017-10-10T02:34:40.844Z,11.37
2017-10-10T02:37:08.499Z,11.38
2017-10-10T02:39:36.102Z,11.44
2017-10-10T02:42:03.817Z,11.46
2017-10-10T02:44:31.488Z,11.43
2017-10-10T02:46:59.087Z,11.41
2017-10-10T02:49:26.699Z,11.44
2017-10-10T02:51:54.440Z,11.48
2017-10-10T02:54:22.040Z,11.48
2017-10-10T02:56:49.640Z,11.45
2017-10-10T02:59:17.349Z,11.45
2017-10-10T03:01:45.024Z,11.39
2017-10-10T03:04:12.688Z,11.35
2017-10-10T03:06:40.392Z,11.38
2017-10-10T03:09:08.055Z,11.37
2017-10-10T03:11:35.781Z,11.34
2017-10-10T03:14:03.424Z,11.41
2017-10-10T03:16:31.040Z,11.39
2017-10-10T03:18:58.701Z,11.44
2017-10-10T03:21:26.364Z,11.40
2017-10-10T03:23:54.031Z,11.38
2017-10-10T03:26:21.642Z,11.31
2017-10-10T03:28:50.284Z,11.36
2017-10-10T03:31:17.904Z,11.42
2017-10-10T03:33:45.510Z,11.42
2017-10-10T03:36:13.271Z,11.39
2017-10-10T03:38:40.884Z,11.43
2017-10-10T03:41:08.479Z,11.49
2017-10-10T03:43:36.247Z,11.43
2017-10-10T03:46:03.847Z,11.18
2017-10-10T03:48:31.515Z,10.94
2017-10-10T03:50:59.225Z,10.79
2017-10-10T03:53:26.886Z,10.65
2017-10-10T03:55:54.487Z,10.49
2017-10-10T03:58:22.215Z,10.33
2017-10-10T04:00:49.888Z,10.12
2017-10-10T04:03:17.564Z,9.91
2017-10-10T04:05:45.243Z,9.74
2017-10-10T04:08:12.920Z,9.60
2017-10-10T04:10:40.598Z,9.56
2017-10-10T04:13:08.312Z,9.44
2017-10-10T04:15:35.976Z,9.37
2017-10-10T04:18:03.658Z,9.32
2017-10-10T04:20:31.316Z,9.25
2017-10-10T04:22:58.929Z,9.19
2017-10-10T04:25:26.528Z,9.15
2017-10-10T04:27:54.248Z,9.10
2017-10-10T04:30:21.911Z,9.13
2017-10-10T04:32:49.522Z,9.10
2017-10-10T04:35:17.264Z,9.12
2017-10-10T04:37:44.878Z,9.11
2017-10-10T04:40:12.499Z,9.14
2017-10-10T04:42:40.213Z,9.12
2017-10-10T04:45:07.876Z,9.14
2017-10-10T04:47:35.487Z,9.13
2017-10-10T04:50:03.148Z,9.14
2017-10-10T04:52:30.747Z,9.17
2017-10-10T04:54:58.356Z,9.26
2017-10-10T04:57:26.088Z,9.32
2017-10-10T04:59:53.766Z,9.43
2017-10-10T05:02:21.380Z,9.58
2017-10-10T05:04:49.103Z,9.74
2017-10-10T05:07:16.813Z,9.90
2017-10-10T05:09:44.492Z,10.06
2017-10-10T05:12:12.164Z,10.22
2017-10-10T05:14:39.839Z,10.42
2017-10-10T05:17:07.439Z,10.62
2017-10-10T05:19:35.099Z,10.82
2017-10-10T05:22:02.725Z,10.95
2017-10-10T05:24:30.338Z,11.16
2017-10-10T05:26:58.065Z,11.39
2017-10-10T05:29:25.735Z,11.57
2017-10-10T05:31:53.406Z,11.75
2017-10-10T05:34:21.058Z,11.96
2017-10-10T05:36:48.735Z,12.18
2017-10-10T05:39:16.351Z,12.37
2017-10-10T05:41:44.068Z,12.53
2017-10-10T05:44:11.687Z,12.61
2017-10-10T05:46:39.338Z,12.78
2017-10-10T05:49:06.995Z,12.98
2017-10-10T05:51:34.611Z,13.15
2017-10-10T05:54:02.281Z,13.21
2017-10-10T05:56:30.017Z,13.31
2017-10-10T05:58:57.686Z,13.42
2017-10-10T06:01:25.297Z,13.56
2017-10-10T06:03:53.060Z,13.70
2017-10-10T06:06:20.755Z,13.94
2017-10-10T06:08:48.362Z,14.07
2017-10-10T06:11:16.057Z,14.22
2017-10-10T06:13:43.727Z,14.36
2017-10-10T06:16:11.395Z,14.49
2017-10-10T06:18:39.059Z,14.65
2017-10-10T06:21:06.679Z,14.68
2017-10-10T06:23:34.340Z,14.75
2017-10-10T06:26:02.096Z,14.83
2017-10-10T06:28:29.759Z,14.91
2017-10-10T06:30:57.441Z,15.01
2017-10-10T06:33:25.153Z,15.12
2017-10-10T06:35:52.759Z,15.19
2017-10-10T06:38:20.436Z,15.29
2017-10-10T06:40:48.104Z,15.37
2017-10-10T06:43:15.711Z,15.25
2017-10-10T06:45:43.324Z,15.07
2017-10-10T06:48:11.037Z,15.12
2017-10-10T06:50:38.655Z,15.05
2017-10-10T06:53:06.269Z,15.02
2017-10-10T06:55:33.996Z,15.12
2017-10-10T06:58:01.612Z,15.08
2017-10-10T07:00:29.252Z,15.17
2017-10-10T07:02:56.911Z,15.16
2017-10-10T07:05:24.527Z,15.14
2017-10-10T07:07:52.189Z,15.20
2017-10-10T07:10:19.848Z,15.24
2017-10-10T07:12:47.456Z,15.34
2017-10-10T07:15:15.135Z,15.32
2017-10-10T07:17:42.831Z,15.29
2017-10-10T07:20:10.449Z,15.35
2017-10-10T07:22:38.059Z,15.45
2017-10-10T07:25:05.777Z,15.58
2017-10-10T07:27:33.384Z,15.66
2017-10-10T07:30:00.988Z,15.72
2017-10-10T07:32:28.663Z,15.80
2017-10-10T07:34:56.271Z,15.81
2017-10-10T07:37:23.940Z,15.88
2017-10-10T07:39:51.656Z,15.93
2017-10-10T07:42:19.325Z,15.95
2017-10-10T07:44:46.930Z,15.91
2017-10-10T07:47:14.579Z,15.94
2017-10-10T07:49:42.237Z,16.06
2017-10-10T07:52:09.873Z,16.12
2017-10-10T07:54:37.527Z,16.03
2017-10-10T07:57:05.194Z,16.08
2017-10-10T07:59:32.853Z,16.19
2017-10-10T08:02:00.503Z,16.33
2017-10-10T08:04:28.112Z,16.34
2017-10-10T08:06:55.719Z,16.39
2017-10-10T08:09:23.450Z,16.48
2017-10-10T08:11:51.116Z,16.56
2017-10-10T08:14:18.724Z,16.65
2017-10-10T08:16:46.444Z,16.72
2017-10-10T08:19:14.116Z,16.81
2017-10-10T08:21:41.784Z,16.80
2017-10-10T08:24:09.431Z,16.78
2017-10-10T08:26:37.039Z,16.87
2017-10-10T08:29:04.644Z,16.93
2017-10-10T08:31:32.361Z,17.05
2017-10-10T08:34:00.081Z,17.19
2017-10-10T08:36:27.752Z,17.25
2017-10-10T08:38:55.475Z,17.29
2017-10-10T08:41:23.082Z,17.24
2017-10-10T08:43:50.808Z,17.46
2017-10-10T08:46:18.521Z,17.66
2017-10-10T08:48:46.194Z,17.83
2017-10-10T08:51:13.869Z,17.91
2017-10-10T08:53:41.524Z,18.06
2017-10-10T08:56:09.190Z,18.18
2017-10-10T08:58:36.808Z,18.29
2017-10-10T09:01:04.530Z,18.35
2017-10-10T09:03:32.205Z,18.40
2017-10-10T09:05:59.880Z,18.37
2017-10-10T09:08:27.538Z,18.46
2017-10-10T09:10:55.153Z,18.51
2017-10-10T09:13:22.812Z,18.52
2017-10-10T09:15:50.463Z,18.38
2017-10-10T09:18:18.071Z,18.53
2017-10-10T09:20:45.748Z,18.67
2017-10-10T09:23:13.452Z,18.75
2017-10-10T09:25:41.118Z,18.83
2017-10-10T09:28:08.799Z,18.77
2017-10-10T09:30:36.479Z,18.82
2017-10-10T09:33:04.083Z,18.89
2017-10-10T09:35:31.692Z,18.95
2017-10-10T09:37:59.344Z,18.91
2017-10-10T09:40:27.007Z,18.89
2017-10-10T09:42:54.609Z,18.93
2017-10-10T09:45:22.252Z,18.99
2017-10-10T09:47:49.865Z,18.97
2017-10-10T09:50:17.529Z,19.09
2017-10-10T09:52:45.191Z,19.20
2017-10-10T09:55:12.853Z,19.33
2017-10-10T09:57:40.456Z,19.44
2017-10-10T10:00:08.200Z,19.60
2017-10-10T10:02:35.800Z,19.56
2017-10-10T10:05:03.411Z,19.46
2017-10-10T10:07:31.124Z,19.55
2017-10-10T10:09:58.796Z,19.65
2017-10-10T10:12:26.459Z,19.68
2017-10-10T10:14:54.186Z,19.68
2017-10-10T10:17:21.876Z,19.77
2017-10-10T10:19:49.486Z,19.78
2017-10-10T10:22:17.303Z,19.89
2017-10-10T10:24:44.979Z,20.01
2017-10-10T10:27:12.641Z,20.03
2017-10-10T10:29:40.356Z,20.12
2017-10-10T10:32:08.021Z,20.30
2017-10-10T10:34:35.628Z,20.38
2017-10-10T10:37:03.271Z,20.54
2017-10-10T10:39:30.927Z,20.89
2017-10-10T10:41:58.594Z,21.37
2017-10-10T10:44:26.250Z,21.87
2017-10-10T10:46:53.859Z,22.93
2017-10-10T10:49:21.531Z,23.59
2017-10-10T10:51:49.247Z,24.26
2017-10-10T10:54:16.854Z,24.48
2017-10-10T10:56:44.464Z,24.54
2017-10-10T10:59:12.112Z,24.70
2017-10-10T11:01:39.728Z,24.87
2017-10-10T11:04:07.332Z,24.12
2017-10-10T11:06:35.055Z,23.65
2017-10-10T11:09:02.725Z,22.89
2017-10-10T11:11:30.345Z,22.72
2017-10-10T11:13:58.020Z,22.65
2017-10-10T11:16:25.685Z,22.72
2017-10-10T11:18:53.295Z,23.05
2017-10-10T11:21:20.948Z,23.67
2017-10-10T11:23:48.551Z,24.52
2017-10-10T11:26:16.160Z,25.08
2017-10-10T11:28:43.880Z,25.79
2017-10-10T11:31:11.480Z,25.91
2017-10-10T11:33:39.092Z,26.14
2017-10-10T11:36:06.802Z,26.29
2017-10-10T11:38:34.525Z,27.11
2017-10-10T11:41:02.196Z,28.20
2017-10-10T11:43:29.909Z,29.10
2017-10-10T11:45:57.582Z,29.93
2017-10-10T11:48:25.256Z,30.44
2017-10-10T11:50:52.999Z,30.27
2017-10-10T11:53:20.660Z,30.58
2017-10-10T11:55:48.337Z,30.79
2017-10-10T11:58:15.989Z,30.14
2017-10-10T12:00:43.602Z,30.49
2017-10-10T12:03:11.208Z,30.01
2017-10-10T12:05:38.860Z,28.51
2017-10-10T12:08:06.464Z,27.39
2017-10-10T12:10:34.074Z,25.88
2017-10-10T12:13:02.252Z,24.73
2017-10-10T12:15:29.924Z,24.00
2017-10-10T12:17:57.570Z,23.57
2017-10-10T12:20:25.219Z,23.09
2017-10-10T12:22:52.892Z,22.61
2017-10-10T12:25:20.499Z,22.17
2017-10-10T12:27:48.165Z,21.81
2017-10-10T12:30:15.835Z,21.61
2017-10-10T12:32:43.436Z,21.35
2017-10-10T12:35:11.179Z,21.22
2017-10-10T12:37:38.783Z,21.02
2017-10-10T12:40:06.388Z,20.90
2017-10-10T12:42:34.121Z,20.89
2017-10-10T12:45:01.789Z,20.73
2017-10-10T12:47:29.383Z,20.64
2017-10-10T12:49:57.038Z,20.61
2017-10-10T12:52:24.700Z,20.60
2017-10-10T12:54:52.361Z,20.54
2017-10-10T12:57:20.007Z,20.43
2017-10-10T12:59:47.716Z,20.36
2017-10-10T13:02:15.436Z,20.32
2017-10-10T13:04:43.184Z,20.34
2017-10-10T13:07:10.848Z,20.39
2017-10-10T13:09:38.451Z,20.46
2017-10-10T13:12:06.161Z,20.39
2017-10-10T13:14:33.827Z,20.32
2017-10-10T13:17:01.497Z,20.30
2017-10-10T13:19:29.224Z,20.24
2017-10-10T13:21:56.883Z,20.18
2017-10-10T13:24:24.607Z,20.10
2017-10-10T13:26:52.272Z,20.06
2017-10-10T13:29:19.875Z,20.10
2017-10-10T13:31:47.576Z,20.06
2017-10-10T13:34:15.231Z,19.99
2017-10-10T13:36:42.939Z,19.90
2017-10-10T13:39:10.566Z,19.84
2017-10-10T13:41:38.288Z,19.84
2017-10-10T13:44:05.955Z,19.83
2017-10-10T13:46:33.563Z,19.80
2017-10-10T13:49:01.272Z,19.81
2017-10-10T13:51:28.987Z,19.81
2017-10-10T13:53:56.651Z,19.76
2017-10-10T13:56:24.364Z,19.67
2017-10-10T13:58:51.972Z,19.65
2017-10-10T14:01:19.580Z,19.61
2017-10-10T14:03:47.237Z,19.60
2017-10-10T14:06:14.852Z,19.55
2017-10-10T14:08:42.513Z,19.55
2017-10-10T14:11:10.190Z,19.55
2017-10-10T14:13:37.856Z,19.52
2017-10-10T14:16:05.456Z,19.40
2017-10-10T14:18:33.211Z,19.36
2017-10-10T14:21:00.811Z,19.34
2017-10-10T14:23:28.432Z,19.30
2017-10-10T14:25:56.149Z,19.25
2017-10-10T14:28:23.776Z,19.18
2017-10-10T14:30:51.389Z,19.13
2017-10-10T14:33:19.035Z,19.08
2017-10-10T14:35:46.700Z,19.02
2017-10-10T14:38:14.302Z,18.92
2017-10-10T14:40:41.947Z,18.85
2017-10-10T14:43:09.547Z,18.75
2017-10-10T14:45:37.213Z,18.74
2017-10-10T14:48:04.875Z,18.66
2017-10-10T14:50:32.536Z,18.54
2017-10-10T14:53:00.139Z,18.52
2017-10-10T14:55:27.847Z,18.43
2017-10-10T14:57:55.458Z,18.38
2017-10-10T15:00:23.058Z,18.29
2017-10-10T15:02:50.764Z,18.19
2017-10-10T15:05:18.361Z,18.13
2017-10-10T15:07:45.975Z,18.02
2017-10-10T15:10:13.627Z,17.87
2017-10-10T15:12:41.296Z,17.76
2017-10-10T15:15:08.944Z,17.66
2017-10-10T15:17:36.719Z,17.63
2017-10-10T15:20:04.326Z,17.56
2017-10-10T15:22:31.935Z,17.46
2017-10-10T15:24:59.696Z,17.34
2017-10-10T15:27:27.319Z,17.21
2017-10-10T15:29:54.920Z,17.07
2017-10-10T15:32:22.643Z,16.96
2017-10-10T15:34:50.251Z,16.84
2017-10-10T15:37:17.859Z,16.70
2017-10-10T15:39:45.537Z,16.55
2017-10-10T15:42:13.200Z,16.46
2017-10-10T15:44:40.809Z,16.34
2017-10-10T15:47:08.494Z,16.24
2017-10-10T15:49:36.113Z,16.14
2017-10-10T15:52:03.793Z,15.99
2017-10-10T15:54:31.463Z,15.86
2017-10-10T15:56:59.075Z,15.73
2017-10-10T15:59:26.686Z,15.63
2017-10-10T16:01:54.355Z,15.52
2017-10-10T16:04:22.080Z,15.38
2017-10-10T16:06:49.745Z,15.23
2017-10-10T16:09:17.405Z,15.10
2017-10-10T16:11:45.074Z,14.93
2017-10-10T16:14:12.909Z,14.81
2017-10-10T16:16:40.579Z,14.65
2017-10-10T16:19:08.195Z,14.52
2017-10-10T16:21:35.810Z,14.41
2017-10-10T16:24:03.491Z,14.27
2017-10-10T16:26:31.173Z,14.12
2017-10-10T16:28:58.783Z,14.01
2017-10-10T16:31:26.462Z,13.89
2017-10-10T16:33:54.129Z,13.81
2017-10-10T16:36:21.739Z,13.71
2017-10-10T16:38:49.430Z,13.64
2017-10-10T16:41:17.043Z,13.55
2017-10-10T16:43:44.712Z,13.49
2017-10-10T16:46:12.367Z,13.45
2017-10-10T16:48:40.053Z,13.40
2017-10-10T16:51:07.698Z,13.38
2017-10-10T16:53:35.355Z,13.35
2017-10-10T16:56:02.970Z,13.31
2017-10-10T16:58:30.592Z,13.28
2017-10-10T17:00:58.411Z,13.25
2017-10-10T17:03:26.014Z,13.19
2017-10-10T17:05:53.732Z,13.13
2017-10-10T17:08:21.399Z,13.10
2017-10-10T17:10:49.011Z,13.11
2017-10-10T17:13:16.620Z,13.13
2017-10-10T17:15:44.331Z,13.15
2017-10-10T17:18:11.999Z,13.17
2017-10-10T17:20:39.607Z,13.20
2017-10-10T17:23:07.265Z,13.17
2017-10-10T17:25:34.880Z,13.12
2017-10-10T17:28:02.491Z,13.02
2017-10-10T17:30:30.279Z,12.96
2017-10-10T17:32:57.883Z,12.92
2017-10-10T17:35:25.507Z,12.86
2017-10-10T17:37:53.232Z,12.82
2017-10-10T17:40:20.902Z,12.77
2017-10-10T17:42:48.568Z,12.73
2017-10-10T17:45:16.794Z,12.66
2017-10-10T17:47:44.403Z,12.61
2017-10-10T17:50:12.010Z,12.56
2017-10-10T17:52:39.674Z,12.53
2017-10-10T17:55:07.341Z,12.48
2017-10-10T17:57:34.952Z,12.47
2017-10-10T18:00:02.646Z,12.43
2017-10-10T18:02:30.317Z,12.35
2017-10-10T18:04:58.044Z,12.31
2017-10-10T18:07:25.694Z,12.27
2017-10-10T18:09:53.295Z,12.26
2017-10-10T18:12:21.012Z,12.24
2017-10-10T18:14:48.664Z,12.20
2017-10-10T18:17:16.275Z,12.19
2017-10-10T18:19:43.997Z,12.15
2017-10-10T18:22:11.715Z,12.09
2017-10-10T18:24:39.332Z,12.07
2017-10-10T18:27:07.012Z,12.06
2017-10-10T18:29:34.672Z,12.07
2017-10-10T18:32:02.283Z,12.02
2017-10-10T18:34:29.891Z,11.99
2017-10-10T18:36:57.723Z,11.96
2017-10-10T18:39:25.408Z,11.92
2017-10-10T18:41:53.025Z,11.86
2017-10-10T18:44:20.689Z,11.83
2017-10-10T18:46:48.405Z,11.81
2017-10-10T18:49:16.034Z,11.82
2017-10-10T18:51:43.744Z,11.85
2017-10-10T18:54:11.408Z,11.86
2017-10-10T18:56:39.033Z,11.87
2017-10-10T18:59:06.679Z,11.85
2017-10-10T19:01:34.351Z,11.83
2017-10-10T19:04:02.027Z,11.78
2017-10-10T19:06:29.687Z,11.77
2017-10-10T19:08:57.352Z,11.75
2017-10-10T19:11:25.033Z,11.72
2017-10-10T19:13:52.752Z,11.70
2017-10-10T19:16:20.368Z,11.65
2017-10-10T19:18:47.987Z,11.62
2017-10-10T19:21:15.652Z,11.60
2017-10-10T19:23:43.271Z,11.55
2017-10-10T19:26:10.900Z,11.50
2017-10-10T19:28:38.616Z,11.46
2017-10-10T19:31:06.226Z,11.42
2017-10-10T19:33:33.855Z,11.37
2017-10-10T19:36:01.517Z,11.35
2017-10-10T19:38:29.131Z,11.31
2017-10-10T19:40:56.786Z,11.26
2017-10-10T19:43:24.536Z,11.22
2017-10-10T19:45:52.149Z,11.17
2017-10-10T19:48:19.821Z,11.14
2017-10-10T19:50:47.489Z,11.11
2017-10-10T19:53:15.104Z,11.05
2017-10-10T19:55:42.791Z,11.02
2017-10-10T19:58:10.460Z,10.99
2017-10-10T20:00:38.079Z,10.98
2017-10-10T20:03:05.690Z,10.95
2017-10-10T20:05:33.371Z,10.93
2017-10-10T20:08:00.993Z,10.87
2017-10-10T20:10:28.668Z,10.84
2017-10-10T20:12:56.359Z,10.82
2017-10-10T20:15:23.983Z,10.81
2017-10-10T20:17:51.591Z,10.76
2017-10-10T20:20:19.278Z,10.68
2017-10-10T20:22:46.896Z,10.66
2017-10-10T20:25:14.509Z,10.63
2017-10-10T20:27:42.246Z,10.58
2017-10-10T20:30:09.913Z,10.50
2017-10-10T20:32:37.518Z,10.44
2017-10-10T20:35:05.173Z,10.41
2017-10-10T20:37:32.785Z,10.34
2017-10-10T20:40:00.386Z,10.31
2017-10-10T20:42:28.098Z,10.31
2017-10-10T20:44:55.830Z,10.33
2017-10-10T20:47:23.498Z,10.36
2017-10-10T20:49:51.218Z,10.35
2017-10-10T20:52:18.815Z,10.34
2017-10-10T20:54:46.509Z,10.33
2017-10-10T20:57:14.163Z,10.30
2017-10-10T20:59:41.825Z,10.27
2017-10-10T21:02:09.485Z,10.24
2017-10-10T21:04:37.215Z,10.21
2017-10-10T21:07:04.893Z,10.21
2017-10-10T21:09:32.501Z,10.16
2017-10-10T21:12:00.269Z,10.13
2017-10-10T21:14:27.934Z,10.09
2017-10-10T21:16:55.546Z,10.09
2017-10-10T21:19:23.207Z,10.08
2017-10-10T21:21:50.875Z,10.08
2017-10-10T21:24:18.549Z,10.05
2017-10-10T21:26:46.257Z,10.05
2017-10-10T21:29:13.922Z,10.04
2017-10-10T21:31:41.536Z,10.08
2017-10-10T21:34:09.194Z,10.10
2017-10-10T21:36:36.864Z,10.18
2017-10-10T21:39:04.605Z,10.25
2017-10-10T21:41:32.297Z,10.33
2017-10-10T21:43:59.899Z,10.42
2017-10-10T21:46:27.564Z,10.50
2017-10-10T21:48:55.268Z,10.58
2017-10-10T21:51:22.873Z,10.68
2017-10-10T21:53:50.489Z,10.76
2017-10-10T21:56:18.146Z,10.88
2017-10-10T21:58:45.763Z,10.96
2017-10-10T22:01:13.384Z,11.02
2017-10-10T22:03:41.103Z,11.09
2017-10-10T22:06:08.771Z,11.13
2017-10-10T22:08:36.375Z,11.13
2017-10-10T22:11:04.096Z,11.09
2017-10-10T22:13:31.768Z,11.07
2017-10-10T22:15:59.431Z,11.03
2017-10-10T22:18:27.084Z,11.02
2017-10-10T22:20:54.695Z,10.98
2017-10-10T22:23:22.307Z,10.96
2017-10-10T22:25:49.964Z,10.94
2017-10-10T22:28:17.640Z,10.91
2017-10-10T22:30:45.242Z,10.90
2017-10-10T22:33:12.887Z,10.88
2017-10-10T22:35:40.498Z,10.81
2017-10-10T22:38:08.161Z,10.76
2017-10-10T22:40:35.820Z,10.70
2017-10-10T22:43:03.442Z,10.63
2017-10-10T22:45:31.056Z,10.53
2017-10-10T22:47:58.719Z,10.41
2017-10-10T22:50:26.337Z,10.33
2017-10-10T22:52:53.957Z,10.25
2017-10-10T22:55:21.628Z,10.20
2017-10-10T22:57:49.246Z,10.16
2017-10-10T23:00:16.917Z,10.13
2017-10-10T23:02:44.595Z,10.07
2017-10-10T23:05:12.321Z,10.05
2017-10-10T23:07:39.992Z,10.00
2017-10-10T23:10:07.651Z,9.99
2017-10-10T23:12:35.260Z,9.95
2017-10-10T23:15:02.878Z,9.93
2017-10-10T23:17:30.539Z,9.89
2017-10-10T23:19:58.152Z,9.89
2017-10-10T23:22:43.387Z,9.89
2017-10-10T23:25:11.056Z,9.80
2017-10-10T23:27:38.667Z,9.69
2017-10-10T23:30:06.315Z,9.67
2017-10-10T23:32:33.931Z,9.63
2017-10-10T23:35:01.546Z,9.61
2017-10-10T23:37:29.315Z,9.57
2017-10-10T23:39:56.923Z,9.54
2017-10-10T23:42:24.527Z,9.54
2017-10-10T23:44:52.183Z,9.52
2017-10-10T23:47:19.793Z,9.51
2017-10-10T23:49:47.460Z,9.51
2017-10-10T23:52:15.132Z,9.49
2017-10-10T23:54:42.740Z,9.50
2017-10-10T23:57:10.409Z,9.48
2017-10-10T23:59:38.063Z,9.48
